Vremea acum in Constanta - Romania

Vrei sa afli care e starea vremii acum in Constanta - Romania? Dorim sa iti furnizam starea vremii pentru Constanta - Romania. Starea vremii Constanta - Romania pentru astazi.

Vremea acum in Constanta

Temperatura: 18 °C

Se simte ca: 18 °C
Innorat: 75 %
Precipitatii: %
Presiune atmosferica: 1020 hPa
Umiditate: 83%
Vizibilitate: 10 km
Vantul bate din N cu 16.9 km/h

Evolutia vremii in Constanta pe ore

Ora: 21:00
Temperatura: °C
Sansa de precipitatii: %
Ora Descriere Temp Se simte Precipitatii Umiditate Vant
00:00Noros18.6°18.6°44%86%NE 22.3 KM/H
01:00Ploi pe porţiuni în apropiere18.5°18.5°22%84%NE 22.3 KM/H
02:00Noros18.4°18.4°0%83%NNE 22.7 KM/H
03:00Cer acoperit18.3°18.3°0%83%NNE 22.3 KM/H
04:00Noros18.3°18.3°0%83%NNE 22.3 KM/H
05:00Cer acoperit18.2°18.2°0%83%NNE 22 KM/H
06:00Ploi uşoare şi de scurtă durată18.4°18.4°20%82%NNE 23.4 KM/H
07:00Cer acoperit18.5°18.5°40%81%NE 25.2 KM/H
08:00Ploi uşoare şi de scurtă durată18.7°18.7°60%80%NE 26.6 KM/H
09:00Parțial noros19.3°19.3°40%76%NE 27.7 KM/H
10:00Ploi uşoare şi de scurtă durată19.9°19.9°20%73%NE 29.2 KM/H
11:00Parțial noros20.5°20.5°0%69%NE 30.2 KM/H
12:00Parțial noros20.6°20.6°0%68%NE 30.6 KM/H
13:00Parțial noros20.7°20.7°0%66%NE 30.6 KM/H
14:00Parțial noros20.8°20.8°0%65%NE 31 KM/H
15:00Parțial noros20.5°20.5°0%65%NE 30.2 KM/H
16:00Parțial noros20.2°20.2°0%66%NE 29.2 KM/H
17:00Parțial noros19.9°19.9°0%66%NE 28.4 KM/H
18:00Parțial noros19.3°19.3°0%68%NE 25.9 KM/H
19:00Parțial noros18.6°18.6°0%69%NE 23 KM/H
20:00Parțial noros18°18°0%71%NE 20.5 KM/H
21:00Parțial noros17.8°17.8°0%71%NNE 20.2 KM/H
22:00Parțial noros17.6°17.6°0%72%NNE 20.2 KM/H
23:00Parțial noros17.4°17.4°0%72%NNE 19.8 KM/H